Stations météo

réclame
Mon MeteoGroup
Zugspitze, Allemagne (10961): Température de l'air & dewpoint: 09.12.2018 12:00:00 - 15.12.2018 12:00:00 (CET)Zugspitze, Allemagne (10961): Vitesse du vent & gusts: 09.12.2018 12:00:00 - 15.12.2018 12:00:00 (CET)Zugspitze, Allemagne (10961): Direction du vent: 09.12.2018 12:00:00 - 15.12.2018 12:00:00 (CET)Zugspitze, Allemagne (10961): visibility: 09.12.2018 12:00:00 - 15.12.2018 12:00:00 (CET)Zugspitze, Allemagne (10961): Ensoleillement: 09.12.2018 12:00:00 - 15.12.2018 12:00:00 (CET)
Date & Time tt [°C] td [°C] ff [km/h] ff [knt] fx [km/h] fx [knt] dd vv [km] sd [min]
15.12.2018 12:00:00 -14,8 -19,0 9 5 14 8 NW 66 60
15.12.2018 11:00:00 -15,8 -25,0 8 4 14 8 NW 73 60
15.12.2018 10:00:00 -16,3 -24,3 9 5 17 9 NNW 75 60
15.12.2018 09:00:00 -16,5 -20,6 11 6 24 13 NNW 75 50
15.12.2018 08:00:00 -17,2 -20,1 14 7 21 12 NNW 75 0
15.12.2018 07:00:00 -17,3 -19,7 11 6 23 13 N 75 0
15.12.2018 06:00:00 -17,0 -19,0 16 9 27 14 NNW 6 0
15.12.2018 05:00:00 -16,6 -18,8 9 5 15 8 NNW 75 0
15.12.2018 04:00:00 -16,5 -19,7 9 5 16 9 NNW 75 0
15.12.2018 03:00:00 -16,7 -20,1 9 5 19 10 NNW 75 0
15.12.2018 02:00:00 -16,8 -20,4 13 7 19 11 NNW 75 0
15.12.2018 01:00:00 -17,7 -23,0 11 6 27 14 N 75 0
15.12.2018 00:00:00 -17,7 -22,8 16 9 29 16 NNW 75 0
14.12.2018 23:00:00 -17,6 -23,3 12 7 22 12 NNW 75 0
14.12.2018 22:00:00 -17,4 -23,2 16 9 32 17 NNW 75 0
14.12.2018 21:00:00 -17,3 -23,3 27 14 33 18 NNW 75 0
14.12.2018 20:00:00 -17,4 -26,2 24 13 31 17 NNW 75 0
14.12.2018 19:00:00 -17,5 -24,0 22 12 30 16 NW 75 0
14.12.2018 18:00:00 -17,2 -26,2 18 10 26 14 NW 75 0
14.12.2018 17:00:00 -16,9 -24,4 17 9 23 12 NW 75 35
14.12.2018 16:00:00 -16,3 -26,8 14 8 23 12 NNW 75 60
14.12.2018 15:00:00 -15,7 -26,8 11 6 18 10 NNW 75 60
14.12.2018 14:00:00 -15,6 -25,2 8 5 18 10 NW - 60
14.12.2018 13:00:00 -15,0 -24,3 11 6 13 7 W - 60
14.12.2018 12:00:00 -15,1 -23,5 5 3 9 5 N 75 60
14.12.2018 11:00:00 -15,6 -24,5 5 3 11 6 N 75 60
14.12.2018 10:00:00 -16,1 -24,3 8 5 23 13 N 75 60
14.12.2018 09:00:00 -16,1 -23,6 20 11 26 14 NNW 75 53
14.12.2018 08:00:00 -16,1 -20,8 18 10 27 15 NNW 75 0
14.12.2018 07:00:00 -16,3 -24,7 18 10 23 13 NW 75 0
14.12.2018 06:00:00 -15,6 -23,0 14 8 19 10 NNW 75 0
14.12.2018 05:00:00 -15,5 -22,4 10 6 14 8 NNW 75 0
14.12.2018 04:00:00 -15,7 -25,0 9 5 13 7 NNW 75 0
14.12.2018 03:00:00 -15,8 -24,1 9 5 14 7 NNW 75 0
14.12.2018 02:00:00 -15,7 -23,3 10 5 12 7 NNW 75 0
14.12.2018 01:00:00 -16,0 -24,9 4 2 9 5 NNW 75 0
14.12.2018 00:00:00 -15,5 -25,8 3 1 10 5 SSE 75 0
13.12.2018 23:00:00 -16,0 -21,3 10 5 17 9 W 75 0
13.12.2018 22:00:00 -16,0 -19,2 14 7 18 10 W 75 0
13.12.2018 21:00:00 -16,3 -18,8 13 7 21 11 W 75 0
13.12.2018 20:00:00 -16,4 -20,4 12 7 19 10 W 75 0
13.12.2018 19:00:00 -16,4 -21,3 7 4 15 8 WSW 75 0
13.12.2018 18:00:00 -16,3 -23,1 11 6 23 12 WSW 75 0
13.12.2018 17:00:00 -16,3 -24,0 18 10 27 15 WSW 75 36
13.12.2018 16:00:00 -15,6 -25,4 22 12 29 16 SW 75 60
13.12.2018 15:00:00 -15,6 -24,4 18 10 30 16 SW 75 59
13.12.2018 14:00:00 -15,4 -23,6 24 13 35 19 SSW 75 60
13.12.2018 13:00:00 -15,5 -23,5 30 16 41 22 S 46 60
13.12.2018 12:00:00 -16,0 -22,9 33 18 42 23 SSE 56 60
13.12.2018 11:00:00 -16,7 -23,0 30 16 39 21 SSE 51 60
13.12.2018 10:00:00 -17,1 -24,6 30 16 47 26 S 32 60
13.12.2018 09:00:00 -17,3 -23,2 31 17 42 23 S 19 52
13.12.2018 08:00:00 -18,1 -23,5 31 17 42 23 SSE 47 0
13.12.2018 07:00:00 -17,8 -23,9 25 14 38 21 S 64 0
13.12.2018 06:00:00 -17,8 -23,3 27 14 41 22 SSW 75 0
13.12.2018 05:00:00 -18,0 -22,5 27 15 41 22 S 75 0
13.12.2018 04:00:00 -17,6 -22,5 27 14 42 23 SSW 56 0
13.12.2018 03:00:00 -17,5 -22,1 25 13 40 22 S 58 0
13.12.2018 02:00:00 -17,3 -21,6 30 16 40 21 SSW 58 0
13.12.2018 01:00:00 -17,2 -21,6 24 13 32 17 S 73 0
13.12.2018 00:00:00 -17,2 -20,8 25 14 29 16 S 48 0
12.12.2018 23:00:00 -17,2 -20,4 20 11 22 12 S 75 0
12.12.2018 22:00:00 -17,2 -20,3 14 8 29 16 SSE 75 0
12.12.2018 21:00:00 -17,6 -20,1 22 12 31 17 ESE 73 0
12.12.2018 20:00:00 -17,5 -19,6 22 12 29 15 ESE 75 0
12.12.2018 19:00:00 -17,4 -19,5 19 10 23 12 ESE 70 0
12.12.2018 18:00:00 -17,1 -19,5 20 11 29 16 ESE 75 0
12.12.2018 17:00:00 -17,0 -18,8 22 12 27 15 ESE 58 36
12.12.2018 16:00:00 -16,4 -18,8 17 9 24 13 ESE 70 60
12.12.2018 15:00:00 -16,2 -18,3 22 12 27 14 ESE 6 60
12.12.2018 14:00:00 -15,6 -18,1 16 9 22 12 ESE 1,1 60
12.12.2018 13:00:00 -15,6 -18,2 18 10 21 11 ESE 35 60
12.12.2018 12:00:00 -15,2 -17,0 7 4 19 10 ESE 0,3 60
12.12.2018 11:00:00 -16,1 -18,2 7 4 21 11 NNE 6 60
12.12.2018 10:00:00 -16,4 -18,2 12 6 23 12 NNW 4,3 59
12.12.2018 09:00:00 -16,7 -18,5 11 6 22 12 NNW 53 51
12.12.2018 08:00:00 -17,1 -18,4 10 6 24 13 NNW - 0
12.12.2018 07:00:00 -17,1 -18,5 11 6 23 13 NNW - 0
12.12.2018 06:00:00 -17,3 -18,6 9 5 26 14 NNW - 0
12.12.2018 05:00:00 -17,7 -19,1 13 7 31 17 NNW - 0
12.12.2018 04:00:00 -18,4 -19,4 8 5 18 10 NNW - 0
12.12.2018 03:00:00 -18,2 -19,2 9 5 17 9 NNW - 0
12.12.2018 02:00:00 -18,2 -19,5 11 6 22 12 NNW - 0
12.12.2018 01:00:00 -18,1 -19,2 13 7 24 13 NNW - 0
12.12.2018 00:00:00 -18,1 -19,2 13 7 26 14 NNW - 0
11.12.2018 23:00:00 -18,0 -19,4 17 9 28 15 NNW - 0
11.12.2018 22:00:00 -17,9 -19,1 9 5 24 13 NNW - 0
11.12.2018 21:00:00 -17,7 -19,0 12 6 29 16 NNW - 0
11.12.2018 20:00:00 -17,6 -19,0 16 9 28 15 NNW - 0
11.12.2018 19:00:00 -17,6 -18,9 12 7 26 14 NNW - 0
11.12.2018 18:00:00 -17,4 -18,8 14 7 35 19 NNW - 0
11.12.2018 17:00:00 -17,5 -18,9 14 8 34 19 NNW - 0
11.12.2018 16:00:00 -17,1 -18,3 18 10 31 17 NNW - 0
11.12.2018 15:00:00 -16,9 -18,5 14 8 35 19 NNW - 0
11.12.2018 14:00:00 -16,9 -18,5 20 11 35 19 NW - 0
11.12.2018 13:00:00 -17,1 -18,8 21 11 35 19 NNW - 0
11.12.2018 12:00:00 -17,1 -19,0 17 9 34 18 NNW - 0
11.12.2018 11:00:00 -17,2 -19,1 18 10 40 21 NNW - 0
11.12.2018 10:00:00 -17,1 -19,0 19 10 48 26 NNW - 0
11.12.2018 09:00:00 -17,3 -19,1 19 10 34 19 NNW - 0
11.12.2018 08:00:00 -17,4 -19,2 11 6 26 14 NNW - 0
11.12.2018 07:00:00 -17,0 -18,9 15 8 - - NNW - 0
11.12.2018 06:00:00 -17,0 -18,9 14 7 27 15 NNW - 0
11.12.2018 05:00:00 -17,1 -18,2 16 9 36 19 NNW - 0
11.12.2018 04:00:00 -17,2 -18,4 17 9 32 18 NNW - 0
11.12.2018 03:00:00 -16,7 -18,0 15 8 40 22 NNW - 0
11.12.2018 02:00:00 -16,6 -18,3 14 8 44 24 N - 0
11.12.2018 01:00:00 -16,2 -17,9 16 9 47 26 NNW - 0
11.12.2018 00:00:00 -14,9 -16,6 18 10 45 24 NNW - 0
10.12.2018 23:00:00 -14,7 -16,3 18 10 44 24 NNW - 0
10.12.2018 22:00:00 -15,1 -16,8 18 10 43 23 NNW - 0
10.12.2018 21:00:00 -15,0 -16,8 23 12 50 27 NNW - 0
10.12.2018 20:00:00 -14,6 -16,7 21 11 46 25 NNW - 0
10.12.2018 19:00:00 -14,3 -16,0 14 8 42 23 NNW - 0
10.12.2018 18:00:00 -14,6 -16,5 20 11 54 29 NNW - 0
10.12.2018 17:00:00 -15,3 -17,3 24 13 58 32 NNW - 0
10.12.2018 16:00:00 -15,2 -16,1 26 14 50 27 NNW - 0
10.12.2018 15:00:00 -14,7 -15,8 14 8 42 23 NNW - 0
10.12.2018 14:00:00 -14,2 -15,7 26 14 48 26 NNW - 0
10.12.2018 13:00:00 -14,5 -16,1 17 9 37 20 NNW - 0
10.12.2018 12:00:00 -14,7 -16,4 20 11 44 24 NNW - 0
10.12.2018 11:00:00 -14,3 -16,0 24 13 47 25 NW - 0
10.12.2018 10:00:00 -14,2 -15,9 21 12 58 31 NW - 0
10.12.2018 09:00:00 -14,8 -16,6 24 13 51 28 NNW - 0
10.12.2018 08:00:00 -14,3 -15,9 22 12 52 28 NNW - 0
10.12.2018 07:00:00 -13,9 -15,8 21 12 43 23 NNW - 0
10.12.2018 06:00:00 -13,4 -15,0 21 11 47 26 NNW - 0
10.12.2018 05:00:00 -12,7 -12,7 25 14 50 27 NW - 0
10.12.2018 04:00:00 -12,1 -12,5 23 13 51 28 NNW - 0
10.12.2018 03:00:00 -12,1 -13,3 25 14 71 39 NNW - 0
10.12.2018 02:00:00 -12,2 -13,5 23 12 62 34 NNW - 0
10.12.2018 01:00:00 -11,9 -13,3 27 15 57 31 NNW - 0
10.12.2018 00:00:00 -11,3 -12,7 33 18 61 33 NW - 0
09.12.2018 23:00:00 -10,7 -12,0 19 11 51 28 NNW - 0
09.12.2018 22:00:00 -10,4 -11,8 27 15 52 28 NNW - 0
09.12.2018 21:00:00 -10,3 -11,7 21 11 56 30 NNW - 0
09.12.2018 20:00:00 -10,1 -11,5 33 18 77 41 NNW - 0
09.12.2018 19:00:00 -10,3 -11,8 25 14 84 45 NNW - 0
09.12.2018 18:00:00 -10,3 -11,8 36 20 88 48 NW - 0
09.12.2018 17:00:00 -10,5 -12,0 47 26 104 56 NW - 0
09.12.2018 16:00:00 -10,5 -11,0 52 28 99 54 NW - 0
09.12.2018 15:00:00 -10,8 -11,3 44 24 82 45 NW - 0
09.12.2018 14:00:00 -11,1 -11,7 48 26 76 41 NW - 0
09.12.2018 13:00:00 -11,1 -11,5 36 19 79 43 NW - 0
09.12.2018 12:00:00 -11,1 -11,5 33 18 74 40 WNW - 0

tt = Température de l'air
td = dewpoint
ff = Vitesse du vent
fx = gusts
dd = Direction du vent
vv = visibility
sd = Ensoleillement

stations d'obs. à proximité